createdAt,value
2023-07-31T00:02:22.410Z,20.69
2023-07-31T00:04:50.143Z,21.19
2023-07-31T00:07:17.552Z,20.85
2023-07-31T00:09:44.927Z,20.27
2023-07-31T00:12:12.640Z,20.24
2023-07-31T00:14:40.029Z,20.05
2023-07-31T00:17:07.431Z,20.41
2023-07-31T00:19:35.140Z,19.76
2023-07-31T00:22:02.552Z,20.00
2023-07-31T00:24:29.948Z,20.79
2023-07-31T00:26:57.758Z,20.91
2023-07-31T00:29:25.178Z,20.27
2023-07-31T00:31:52.602Z,19.93
2023-07-31T00:34:20.277Z,20.31
2023-07-31T00:36:47.689Z,20.12
2023-07-31T00:39:18.032Z,20.51
2023-07-31T00:41:46.141Z,20.01
2023-07-31T00:44:13.533Z,19.84
2023-07-31T00:46:41.191Z,19.91
2023-07-31T00:49:09.075Z,19.93
2023-07-31T00:51:36.434Z,19.93
2023-07-31T00:54:04.159Z,19.62
2023-07-31T00:56:31.903Z,19.99
2023-07-31T00:58:59.300Z,20.38
2023-07-31T01:01:26.777Z,20.70
2023-07-31T01:03:57.420Z,19.58
2023-07-31T01:06:49.377Z,20.09
2023-07-31T01:09:40.265Z,20.02
2023-07-31T01:12:08.107Z,20.17
2023-07-31T01:14:36.190Z,19.83
2023-07-31T01:17:03.638Z,19.64
2023-07-31T01:19:31.712Z,20.00
2023-07-31T01:22:24.403Z,19.41
2023-07-31T01:25:06.554Z,19.50
2023-07-31T01:27:37.156Z,19.57
2023-07-31T01:30:15.308Z,19.72
2023-07-31T01:32:44.027Z,19.31
2023-07-31T01:35:11.477Z,20.00
2023-07-31T01:37:38.894Z,19.90
2023-07-31T01:40:07.333Z,20.39
2023-07-31T01:42:34.753Z,20.50
2023-07-31T01:45:02.188Z,20.36
2023-07-31T01:47:29.935Z,20.91
2023-07-31T01:49:57.336Z,21.29
2023-07-31T01:52:24.999Z,21.03
2023-07-31T01:54:53.093Z,20.63
2023-07-31T01:57:20.464Z,21.12
2023-07-31T01:59:47.900Z,21.12
2023-07-31T02:02:15.614Z,21.19
2023-07-31T02:04:43.321Z,21.13
2023-07-31T02:07:10.684Z,19.86
2023-07-31T02:09:38.072Z,19.10
2023-07-31T02:12:06.165Z,19.58
2023-07-31T02:14:33.512Z,19.52
2023-07-31T02:17:00.921Z,19.78
2023-07-31T02:19:28.620Z,19.72
2023-07-31T02:21:56.053Z,20.55
2023-07-31T02:24:24.806Z,20.17
2023-07-31T02:26:52.481Z,20.13
2023-07-31T02:29:19.884Z,20.37
2023-07-31T02:31:47.297Z,20.39
2023-07-31T02:34:15.024Z,20.77
2023-07-31T02:36:43.052Z,20.39
2023-07-31T02:39:10.433Z,20.57
2023-07-31T02:41:38.146Z,20.89
2023-07-31T02:44:05.582Z,20.68
2023-07-31T02:46:32.972Z,20.12
2023-07-31T02:49:00.706Z,20.04
2023-07-31T02:51:28.254Z,20.69
2023-07-31T02:53:55.703Z,19.23
2023-07-31T02:56:23.451Z,20.14
2023-07-31T02:58:50.870Z,20.05
2023-07-31T03:01:18.369Z,19.98
2023-07-31T03:03:46.133Z,20.22
2023-07-31T03:06:13.529Z,20.41
2023-07-31T03:08:40.898Z,20.41
2023-07-31T03:11:08.572Z,20.53
2023-07-31T03:13:35.939Z,21.03
2023-07-31T03:16:03.462Z,20.32
2023-07-31T03:18:31.316Z,19.54
2023-07-31T03:20:58.716Z,19.47
2023-07-31T03:23:26.858Z,20.01
2023-07-31T03:26:01.504Z,19.44
2023-07-31T03:28:29.285Z,19.18
2023-07-31T03:30:57.133Z,19.34
2023-07-31T03:33:24.529Z,20.29
2023-07-31T03:35:52.092Z,20.02
2023-07-31T03:38:19.965Z,20.19
2023-07-31T03:40:47.388Z,19.83
2023-07-31T03:43:14.806Z,20.04
2023-07-31T03:45:43.833Z,20.64
2023-07-31T03:48:12.383Z,20.22
2023-07-31T03:50:39.814Z,20.04
2023-07-31T03:53:07.520Z,20.40
2023-07-31T03:55:34.928Z,19.76
2023-07-31T03:58:02.353Z,20.33
2023-07-31T04:00:30.034Z,20.44
2023-07-31T04:02:57.734Z,20.81
2023-07-31T04:05:25.271Z,20.28
2023-07-31T04:07:52.678Z,20.17
2023-07-31T04:10:20.402Z,20.00
2023-07-31T04:12:47.833Z,19.97
2023-07-31T04:15:15.251Z,20.23
2023-07-31T04:17:43.230Z,20.77
2023-07-31T04:20:11.219Z,20.56
2023-07-31T04:22:38.656Z,20.83
2023-07-31T04:25:06.722Z,21.41
2023-07-31T04:27:34.125Z,21.47
2023-07-31T04:30:01.578Z,20.95
2023-07-31T04:32:30.788Z,20.95
2023-07-31T04:34:58.213Z,21.49
2023-07-31T04:37:25.586Z,21.62
2023-07-31T04:39:53.241Z,21.19
2023-07-31T04:42:20.645Z,20.72
2023-07-31T04:44:48.082Z,21.21
2023-07-31T04:47:15.758Z,21.58
2023-07-31T04:49:43.191Z,21.74
2023-07-31T04:52:10.562Z,21.87
2023-07-31T04:54:38.229Z,21.76
2023-07-31T04:57:07.664Z,22.10
2023-07-31T04:59:35.210Z,22.10
2023-07-31T05:02:02.937Z,22.14
2023-07-31T05:04:30.365Z,22.48
2023-07-31T05:06:57.828Z,21.72
2023-07-31T05:09:25.508Z,22.08
2023-07-31T05:11:52.870Z,21.51
2023-07-31T05:14:21.375Z,21.82
2023-07-31T05:16:49.110Z,22.83
2023-07-31T05:19:16.556Z,23.44
2023-07-31T05:21:43.993Z,24.23
2023-07-31T05:24:11.741Z,21.70
2023-07-31T05:26:39.535Z,22.03
2023-07-31T05:29:07.040Z,22.42
2023-07-31T05:31:34.692Z,21.96
2023-07-31T05:34:02.103Z,23.17
2023-07-31T05:36:29.500Z,23.41
2023-07-31T05:38:57.165Z,24.52
2023-07-31T05:41:24.625Z,25.61
2023-07-31T05:43:52.675Z,23.36
2023-07-31T05:46:20.423Z,23.26
2023-07-31T05:48:47.856Z,23.01
2023-07-31T05:51:15.262Z,21.42
2023-07-31T05:53:42.996Z,21.87
2023-07-31T05:56:10.359Z,23.05
2023-07-31T05:58:37.760Z,24.19
2023-07-31T06:01:05.506Z,24.23
2023-07-31T06:03:33.269Z,24.91
2023-07-31T06:06:00.985Z,26.49
2023-07-31T06:08:28.396Z,25.35
2023-07-31T06:10:56.164Z,25.07
2023-07-31T06:13:23.528Z,23.40
2023-07-31T06:15:51.021Z,24.05
2023-07-31T06:18:18.721Z,27.15
2023-07-31T06:20:46.150Z,24.84
2023-07-31T06:23:13.568Z,26.58
2023-07-31T06:25:41.235Z,25.97
2023-07-31T06:28:08.633Z,24.78
2023-07-31T06:30:36.074Z,24.09
2023-07-31T06:33:03.998Z,23.59
2023-07-31T06:35:31.535Z,23.39
2023-07-31T06:37:58.879Z,23.91
2023-07-31T06:40:26.636Z,23.60
2023-07-31T06:42:54.049Z,22.84
2023-07-31T06:45:21.506Z,22.62
2023-07-31T06:47:49.235Z,21.27
2023-07-31T06:50:16.734Z,21.17
2023-07-31T06:52:44.317Z,21.63
2023-07-31T06:55:21.715Z,21.12
2023-07-31T06:57:49.464Z,21.87
2023-07-31T07:00:17.790Z,22.60
2023-07-31T07:02:45.313Z,24.29
2023-07-31T07:05:12.848Z,24.89
2023-07-31T07:07:40.558Z,24.94
2023-07-31T07:10:08.433Z,24.24
2023-07-31T07:12:36.624Z,24.97
2023-07-31T07:15:04.550Z,27.06
2023-07-31T07:17:33.905Z,27.80
2023-07-31T07:20:01.543Z,27.91
2023-07-31T07:22:30.424Z,28.40
2023-07-31T07:24:57.904Z,26.86
2023-07-31T07:27:25.340Z,24.73
2023-07-31T07:29:53.795Z,24.76
2023-07-31T07:32:21.507Z,24.81
2023-07-31T07:34:49.512Z,26.77
2023-07-31T07:37:17.356Z,24.87
2023-07-31T07:39:45.014Z,24.25
2023-07-31T07:42:12.748Z,22.62
2023-07-31T07:44:40.485Z,21.97
2023-07-31T07:47:08.102Z,22.06
2023-07-31T07:49:36.072Z,22.92
2023-07-31T07:52:04.216Z,23.06
2023-07-31T07:54:31.985Z,25.26
2023-07-31T07:56:59.363Z,25.79
2023-07-31T07:59:27.036Z,24.17
2023-07-31T08:01:54.589Z,26.42
2023-07-31T08:04:22.284Z,26.57
2023-07-31T08:06:49.770Z,25.69
2023-07-31T08:09:17.194Z,28.79
2023-07-31T08:11:44.844Z,25.93
2023-07-31T08:14:12.260Z,26.18
2023-07-31T08:16:39.977Z,25.54
2023-07-31T08:19:07.910Z,26.81
2023-07-31T08:21:35.588Z,26.49
2023-07-31T08:24:03.026Z,25.52
2023-07-31T08:26:30.720Z,27.79
2023-07-31T08:28:58.758Z,28.07
2023-07-31T08:31:26.173Z,28.40
2023-07-31T08:33:53.842Z,27.69
2023-07-31T08:36:21.268Z,29.57
2023-07-31T08:38:48.638Z,29.08
2023-07-31T08:41:17.951Z,28.48
2023-07-31T08:43:48.685Z,27.28
2023-07-31T08:46:16.471Z,26.92
2023-07-31T08:48:44.064Z,27.48
2023-07-31T08:51:11.475Z,28.79
2023-07-31T08:53:39.115Z,27.36
2023-07-31T08:56:06.520Z,28.79
2023-07-31T08:58:34.112Z,25.98
2023-07-31T09:01:05.620Z,28.41
2023-07-31T09:03:35.079Z,27.01
2023-07-31T09:06:03.873Z,26.27
2023-07-31T09:08:31.759Z,27.25
2023-07-31T09:11:04.340Z,26.52
2023-07-31T09:13:32.449Z,27.47
2023-07-31T09:16:00.189Z,26.67
2023-07-31T09:18:27.741Z,27.67
2023-07-31T09:21:08.454Z,28.77
2023-07-31T09:23:45.897Z,26.09
2023-07-31T09:26:33.343Z,27.76
2023-07-31T09:29:09.312Z,26.49
2023-07-31T09:31:41.949Z,25.99
2023-07-31T09:34:09.596Z,27.16
2023-07-31T09:36:47.300Z,29.26
2023-07-31T09:39:15.407Z,29.20
2023-07-31T09:41:48.294Z,28.02
2023-07-31T09:44:15.664Z,30.44
2023-07-31T09:46:44.151Z,28.68
2023-07-31T09:49:12.731Z,29.50
2023-07-31T09:51:40.911Z,27.09
2023-07-31T09:54:15.339Z,28.47
2023-07-31T09:56:47.347Z,28.62
2023-07-31T09:59:21.868Z,27.65
2023-07-31T10:01:51.289Z,28.91
2023-07-31T10:04:21.847Z,28.28
2023-07-31T10:06:49.252Z,26.89
2023-07-31T10:09:16.746Z,27.86
2023-07-31T10:11:57.512Z,29.65
2023-07-31T10:14:25.044Z,28.61
2023-07-31T10:16:52.691Z,28.94
2023-07-31T10:19:20.134Z,27.70
2023-07-31T10:21:47.689Z,30.15
2023-07-31T10:24:15.445Z,29.68
2023-07-31T10:26:42.986Z,28.11
2023-07-31T10:29:10.447Z,29.38
2023-07-31T10:31:38.084Z,29.26
2023-07-31T10:34:05.944Z,28.50
2023-07-31T10:36:33.340Z,28.80
2023-07-31T10:39:01.033Z,29.80
2023-07-31T10:41:32.255Z,27.86
2023-07-31T10:44:03.036Z,28.21
2023-07-31T10:46:30.751Z,28.61
2023-07-31T10:49:02.318Z,27.74
2023-07-31T10:51:36.305Z,27.89
2023-07-31T10:54:13.780Z,29.16
2023-07-31T10:56:41.665Z,27.46
2023-07-31T10:59:13.652Z,26.34
2023-07-31T11:01:54.212Z,25.77
2023-07-31T11:04:28.493Z,25.29
2023-07-31T11:06:59.902Z,25.40
2023-07-31T11:09:31.869Z,24.39
2023-07-31T11:12:00.006Z,25.22
2023-07-31T11:14:27.729Z,24.79
2023-07-31T11:16:55.194Z,24.25
2023-07-31T11:19:24.696Z,24.99
2023-07-31T11:21:54.000Z,25.01
2023-07-31T11:24:21.404Z,24.61
2023-07-31T11:26:52.763Z,24.95
2023-07-31T11:29:21.319Z,24.91
2023-07-31T11:31:49.297Z,24.72
2023-07-31T11:34:18.329Z,24.66
2023-07-31T11:36:56.574Z,24.25
2023-07-31T11:39:24.001Z,24.06
2023-07-31T11:41:51.709Z,24.19
2023-07-31T11:44:27.376Z,24.64
2023-07-31T11:46:59.066Z,24.54
2023-07-31T11:49:26.898Z,24.84
2023-07-31T11:51:54.297Z,24.53
2023-07-31T11:54:22.053Z,24.60
2023-07-31T11:56:50.752Z,25.24
2023-07-31T11:59:18.211Z,25.01
2023-07-31T12:01:45.938Z,24.59
2023-07-31T12:04:13.787Z,24.52
2023-07-31T12:06:41.574Z,24.94
2023-07-31T12:09:09.152Z,24.38
2023-07-31T12:11:46.527Z,24.32
2023-07-31T12:14:27.165Z,24.56
2023-07-31T12:19:30.859Z,24.74
2023-07-31T12:22:00.066Z,24.50
2023-07-31T12:24:28.024Z,25.19
2023-07-31T12:26:56.347Z,24.79
2023-07-31T12:29:24.082Z,24.67
2023-07-31T12:31:51.644Z,25.69
2023-07-31T12:34:19.755Z,24.81
2023-07-31T12:36:47.502Z,24.34
2023-07-31T12:39:15.486Z,24.77
2023-07-31T12:41:42.882Z,24.90
2023-07-31T12:44:12.422Z,24.48
2023-07-31T12:46:40.110Z,24.87
2023-07-31T12:49:07.844Z,25.36
2023-07-31T12:51:35.497Z,25.28
2023-07-31T12:54:02.928Z,25.07
2023-07-31T12:56:30.339Z,24.61
2023-07-31T12:58:57.984Z,24.77
2023-07-31T13:01:25.415Z,24.95
2023-07-31T13:03:53.025Z,25.35
2023-07-31T13:06:20.896Z,25.66
2023-07-31T13:08:48.384Z,25.11
2023-07-31T13:11:15.849Z,25.06
2023-07-31T13:13:43.601Z,25.23
2023-07-31T13:16:11.098Z,25.00
2023-07-31T13:18:38.503Z,25.62
2023-07-31T13:21:06.200Z,25.37
2023-07-31T13:23:33.572Z,25.76
2023-07-31T13:26:00.949Z,26.25
2023-07-31T13:28:28.633Z,26.08
2023-07-31T13:30:56.167Z,25.79
2023-07-31T13:33:36.190Z,25.58
2023-07-31T13:36:05.190Z,25.20
2023-07-31T13:38:32.641Z,25.45
2023-07-31T13:41:00.294Z,25.46
2023-07-31T13:43:27.959Z,25.46
2023-07-31T13:45:55.357Z,25.86
2023-07-31T13:48:22.750Z,25.87
2023-07-31T13:50:50.382Z,25.65
2023-07-31T13:53:17.774Z,25.96
2023-07-31T13:55:46.788Z,25.91
2023-07-31T13:58:14.475Z,26.33
2023-07-31T14:00:41.881Z,25.11
2023-07-31T14:03:09.604Z,26.11
2023-07-31T14:05:37.024Z,25.86
2023-07-31T14:08:04.610Z,25.18
2023-07-31T14:10:32.228Z,25.27
2023-07-31T14:12:59.575Z,26.02
2023-07-31T14:15:27.624Z,25.36
2023-07-31T14:17:58.333Z,25.44
2023-07-31T14:20:27.388Z,25.55
2023-07-31T14:22:55.066Z,25.46
2023-07-31T14:25:22.555Z,25.65
2023-07-31T14:27:49.977Z,26.01
2023-07-31T14:30:18.208Z,26.24
2023-07-31T14:32:45.736Z,25.81
2023-07-31T14:35:13.126Z,25.52
2023-07-31T14:37:41.618Z,25.95
2023-07-31T14:40:09.589Z,26.35
2023-07-31T14:42:37.139Z,26.12
2023-07-31T14:45:05.644Z,26.30
2023-07-31T14:47:33.275Z,26.11
2023-07-31T14:50:00.952Z,26.51
2023-07-31T14:52:28.629Z,26.69
2023-07-31T14:54:56.021Z,26.32
2023-07-31T14:57:25.397Z,26.09
2023-07-31T14:59:54.418Z,25.89
2023-07-31T15:02:22.126Z,25.93
2023-07-31T15:04:49.503Z,25.76
2023-07-31T15:07:17.184Z,25.81
2023-07-31T15:09:44.565Z,25.80
2023-07-31T15:12:11.978Z,25.80
2023-07-31T15:14:39.681Z,26.13
2023-07-31T15:17:07.152Z,25.81
2023-07-31T15:19:36.138Z,25.63
2023-07-31T15:22:04.710Z,25.39
2023-07-31T15:24:32.339Z,25.51
2023-07-31T15:26:59.963Z,25.57
2023-07-31T15:29:27.663Z,25.15
2023-07-31T15:31:55.062Z,25.53
2023-07-31T15:34:22.464Z,26.05
2023-07-31T15:36:50.135Z,25.61
2023-07-31T15:39:17.529Z,25.85
2023-07-31T15:41:45.022Z,25.77
2023-07-31T15:44:12.810Z,25.46
2023-07-31T15:46:40.390Z,25.55
2023-07-31T15:49:08.026Z,25.20
2023-07-31T15:51:35.714Z,25.81
2023-07-31T15:54:03.182Z,25.61
2023-07-31T15:56:30.535Z,25.41
2023-07-31T15:58:59.628Z,25.53
2023-07-31T16:01:27.190Z,25.45
2023-07-31T16:03:54.968Z,25.84
2023-07-31T16:06:22.385Z,25.65
2023-07-31T16:08:49.942Z,25.44
2023-07-31T16:11:17.569Z,26.11
2023-07-31T16:13:44.997Z,25.54
2023-07-31T16:16:12.406Z,25.71
2023-07-31T16:18:40.097Z,25.67
2023-07-31T16:21:07.529Z,26.43
2023-07-31T16:23:34.941Z,25.32
2023-07-31T16:26:02.651Z,25.97
2023-07-31T16:28:30.095Z,26.29
2023-07-31T16:30:57.485Z,25.35
2023-07-31T16:33:25.305Z,25.83
2023-07-31T16:35:52.725Z,25.25
2023-07-31T16:38:20.125Z,25.20
2023-07-31T16:40:48.384Z,25.04
2023-07-31T16:43:15.851Z,25.11
2023-07-31T16:45:43.344Z,25.71
2023-07-31T16:48:11.126Z,25.00
2023-07-31T16:50:38.571Z,25.59
2023-07-31T16:53:05.929Z,25.23
2023-07-31T16:55:35.222Z,24.92
2023-07-31T16:58:02.591Z,25.56
2023-07-31T17:00:30.691Z,25.50
2023-07-31T17:02:59.048Z,24.43
2023-07-31T17:05:26.602Z,24.57
2023-07-31T17:07:54.024Z,24.72
2023-07-31T17:10:21.683Z,24.84
2023-07-31T17:12:49.069Z,25.37
2023-07-31T17:15:16.528Z,24.68
2023-07-31T17:17:44.231Z,24.83
2023-07-31T17:20:12.829Z,24.58
2023-07-31T17:22:48.599Z,24.86
2023-07-31T17:25:20.119Z,24.26
2023-07-31T17:27:50.048Z,24.55
2023-07-31T17:30:19.094Z,25.70
2023-07-31T17:32:46.540Z,25.47
2023-07-31T17:35:13.992Z,25.07
2023-07-31T17:37:41.659Z,25.64
2023-07-31T17:40:09.553Z,25.89
2023-07-31T17:42:36.926Z,26.04
2023-07-31T17:45:04.905Z,25.93
2023-07-31T17:47:32.360Z,25.78
2023-07-31T17:49:59.824Z,26.37
2023-07-31T17:52:27.484Z,26.14
2023-07-31T17:54:55.383Z,26.53
2023-07-31T17:57:22.887Z,26.72
2023-07-31T17:59:52.091Z,26.54
2023-07-31T18:02:20.011Z,26.48
2023-07-31T18:04:47.801Z,26.64
2023-07-31T18:07:15.192Z,26.50
2023-07-31T18:09:42.616Z,25.51
2023-07-31T18:12:10.312Z,25.84
2023-07-31T18:14:38.929Z,26.17
2023-07-31T18:17:06.827Z,25.91
2023-07-31T18:19:34.629Z,26.08
2023-07-31T18:22:02.110Z,25.61
2023-07-31T18:24:29.521Z,25.56
2023-07-31T18:26:57.802Z,25.60
2023-07-31T18:29:25.628Z,25.37
2023-07-31T18:31:53.056Z,25.15
2023-07-31T18:34:20.723Z,25.30
2023-07-31T18:36:48.112Z,25.18
2023-07-31T18:39:15.508Z,24.96
2023-07-31T18:41:43.187Z,24.96
2023-07-31T18:44:10.718Z,24.72
2023-07-31T18:46:38.531Z,24.89
2023-07-31T18:49:06.540Z,24.76
2023-07-31T18:51:38.509Z,24.81
2023-07-31T18:54:06.500Z,24.63
2023-07-31T18:56:34.115Z,24.66
2023-07-31T18:59:02.174Z,24.55
2023-07-31T19:01:29.841Z,24.23
2023-07-31T19:03:59.395Z,24.31
2023-07-31T19:06:26.885Z,24.15
2023-07-31T19:08:58.306Z,24.34
2023-07-31T19:11:32.512Z,24.54
2023-07-31T19:14:01.299Z,24.55
2023-07-31T19:16:28.905Z,24.56
2023-07-31T19:18:56.438Z,24.57
2023-07-31T19:21:24.157Z,24.24
2023-07-31T19:23:51.659Z,24.47
2023-07-31T19:26:19.320Z,24.30
2023-07-31T19:28:46.958Z,24.38
2023-07-31T19:31:14.369Z,24.49
2023-07-31T19:33:41.793Z,24.19
2023-07-31T19:36:09.444Z,24.08
2023-07-31T19:38:37.050Z,23.83
2023-07-31T19:41:05.054Z,23.71
2023-07-31T19:43:32.669Z,23.55
2023-07-31T19:46:00.082Z,23.85
2023-07-31T19:48:27.581Z,23.91
2023-07-31T19:50:55.256Z,23.78
2023-07-31T19:53:22.635Z,23.86
2023-07-31T19:55:50.370Z,23.64
2023-07-31T19:58:18.082Z,23.57
2023-07-31T20:00:45.430Z,23.83
2023-07-31T20:03:13.106Z,23.44
2023-07-31T20:05:42.307Z,23.39
2023-07-31T20:08:09.716Z,23.26
2023-07-31T20:10:37.413Z,23.54
2023-07-31T20:13:04.786Z,23.69
2023-07-31T20:15:32.202Z,23.39
2023-07-31T20:17:59.903Z,23.10
2023-07-31T20:20:27.316Z,23.16
2023-07-31T20:22:54.760Z,23.31
2023-07-31T20:25:22.438Z,23.49
2023-07-31T20:27:49.819Z,23.48
2023-07-31T20:30:17.244Z,23.25
2023-07-31T20:32:45.684Z,23.27
2023-07-31T20:35:13.139Z,23.08
2023-07-31T20:37:40.535Z,23.39
2023-07-31T20:40:08.872Z,23.30
2023-07-31T20:42:36.316Z,23.39
2023-07-31T20:45:03.953Z,23.29
2023-07-31T20:47:31.923Z,22.73
2023-07-31T20:49:59.313Z,22.49
2023-07-31T20:52:26.713Z,22.32
2023-07-31T20:54:54.348Z,22.54
2023-07-31T20:57:21.763Z,22.07
2023-07-31T20:59:49.204Z,22.67
2023-07-31T21:02:16.934Z,22.52
2023-07-31T21:04:44.433Z,22.57
2023-07-31T21:07:16.025Z,22.16
2023-07-31T21:09:48.540Z,22.41
2023-07-31T21:12:16.069Z,22.40
2023-07-31T21:14:43.899Z,22.02
2023-07-31T21:17:11.594Z,22.60
2023-07-31T21:19:38.997Z,22.34
2023-07-31T21:22:06.730Z,22.34
2023-07-31T21:24:34.122Z,22.61
2023-07-31T21:27:01.492Z,22.38
2023-07-31T21:29:29.162Z,21.78
2023-07-31T21:31:57.866Z,21.86
2023-07-31T21:34:25.508Z,21.55
2023-07-31T21:36:53.179Z,22.26
2023-07-31T21:39:21.263Z,21.93
2023-07-31T21:41:48.658Z,21.77
2023-07-31T21:44:16.302Z,21.61
2023-07-31T21:46:43.970Z,21.67
2023-07-31T21:49:11.580Z,21.76
2023-07-31T21:51:39.254Z,21.51
2023-07-31T21:54:06.700Z,21.87
2023-07-31T21:56:34.071Z,21.36
2023-07-31T21:59:01.765Z,21.41
2023-07-31T22:01:29.128Z,21.92
2023-07-31T22:03:56.810Z,21.93
2023-07-31T22:06:24.194Z,22.06
2023-07-31T22:08:51.613Z,21.87
2023-07-31T22:11:21.467Z,22.05
2023-07-31T22:13:49.030Z,21.89
2023-07-31T22:16:16.474Z,21.54
2023-07-31T22:18:44.278Z,21.32
2023-07-31T22:21:11.714Z,21.41
2023-07-31T22:23:39.119Z,21.81
2023-07-31T22:26:06.801Z,21.73
2023-07-31T22:28:34.210Z,21.63
2023-07-31T22:31:01.610Z,21.93
2023-07-31T22:33:29.231Z,21.96
2023-07-31T22:35:56.643Z,21.30
2023-07-31T22:38:24.026Z,21.74
2023-07-31T22:40:51.660Z,21.55
2023-07-31T22:43:19.099Z,21.41
2023-07-31T22:45:47.088Z,21.72
2023-07-31T22:48:14.789Z,22.10
2023-07-31T22:50:42.282Z,21.91
2023-07-31T22:53:09.733Z,21.98
2023-07-31T22:55:37.420Z,21.82
2023-07-31T22:58:04.857Z,21.95
2023-07-31T23:00:32.332Z,21.93
2023-07-31T23:03:00.073Z,21.66
2023-07-31T23:05:27.550Z,21.58
2023-07-31T23:07:54.988Z,21.66
2023-07-31T23:10:22.624Z,21.72
2023-07-31T23:12:49.985Z,21.70
2023-07-31T23:15:17.397Z,21.51
2023-07-31T23:17:45.143Z,21.43
2023-07-31T23:20:12.562Z,21.48
2023-07-31T23:22:39.982Z,21.71
2023-07-31T23:25:08.025Z,21.67
2023-07-31T23:27:35.415Z,21.53
2023-07-31T23:30:02.989Z,21.42
2023-07-31T23:32:30.693Z,21.49
2023-07-31T23:34:58.138Z,21.06
2023-07-31T23:37:25.550Z,21.19
2023-07-31T23:39:53.218Z,21.38
2023-07-31T23:42:20.602Z,21.39
2023-07-31T23:44:56.757Z,21.41
2023-07-31T23:47:32.591Z,21.30
2023-07-31T23:50:00.194Z,21.27
2023-07-31T23:52:27.593Z,21.18
2023-07-31T23:54:55.297Z,21.11
2023-07-31T23:57:22.730Z,21.40
2023-07-31T23:59:50.140Z,21.52
